»·PEaware :: N357WT KSNA-KSNA

N357WT :: KSNA-KSNA

FLIGHT INFORMATION

Flight Status: Arrived
Operator: Privately registered:
United States
More flights under this callsign
Pilot: David D. (772)
Aircraft: CIRRUS SR-22
(SR22)
More flights by this aircraft type
Origin: KSNA John Wayne-Orange Co
United States
Destination: KSNA John Wayne-Orange Co
United States
More flights between these airports :: More routes between these airports
Route: SLI
File this flight plan on PilotEdge
Remarks:
Altitude:
(Current/Filed)
3,000ft
Speed:
(Current/Filed)
150kts
Departed: 23-Feb-21 08:17 AM
Arrived: 23-Feb-21 08:43 AM
Distance/Time
Traveled:
0nm/0:26
Distance/Time
To Go:
Arrived

Flight Plot

Page will automatically refresh every two minutes.


Map Options




Map Legend


Flown Route
Filed Route
Departure Airport
Arrival Airport
Navaid (VOR, NDB)
Fix

Horizontal Profiles

Position Reports

Time Latitude Longitude Heading Altitude Ground
Speed
23-Feb-21 07:55 33.673091 -117.866212 286 59ft 0kts
23-Feb-21 07:56 33.673091 -117.866212 286 59ft 0kts
23-Feb-21 07:57 33.673091 -117.866212 286 59ft 0kts
23-Feb-21 07:58 33.673091 -117.866212 286 59ft 0kts
23-Feb-21 07:59 33.673091 -117.866212 286 59ft 0kts
23-Feb-21 08:00 33.673091 -117.866212 286 59ft 0kts
23-Feb-21 08:01 33.673091 -117.866212 286 59ft 0kts
23-Feb-21 08:02 33.673091 -117.866213 286 59ft 0kts
23-Feb-21 08:03 33.673091 -117.866212 286 59ft 0kts
23-Feb-21 08:04 33.673091 -117.866213 286 59ft 0kts
23-Feb-21 08:05 33.673091 -117.866213 286 59ft 0kts
23-Feb-21 08:06 33.673091 -117.866212 286 59ft 0kts
23-Feb-21 08:07 33.673091 -117.866213 286 59ft 0kts
23-Feb-21 08:08 33.673091 -117.866212 286 59ft 0kts
23-Feb-21 08:09 33.673091 -117.866213 286 59ft 0kts
23-Feb-21 08:10 33.673091 -117.866213 286 59ft 0kts
23-Feb-21 08:11 33.673111 -117.866266 295 59ft 6kts
23-Feb-21 08:12 33.676527 -117.865547 25 59ft 25kts
23-Feb-21 08:13 33.679930 -117.863591 302 59ft 0kts
23-Feb-21 08:14 33.679930 -117.863591 302 59ft 0kts
23-Feb-21 08:15 33.679948 -117.864204 223 59ft 17kts
23-Feb-21 08:16 33.658949 -117.880540 231 969ft 115kts
23-Feb-21 08:17 33.639098 -117.913588 231 2022ft 146kts
23-Feb-21 08:18 33.615143 -117.953033 231 2947ft 142kts
23-Feb-21 08:19 33.597683 -117.997794 294 2993ft 165kts
23-Feb-21 08:20 33.629145 -118.038540 312 2999ft 166kts
23-Feb-21 08:21 33.660365 -118.077450 312 2998ft 159kts
23-Feb-21 08:22 33.696672 -118.081017 41 3004ft 158kts
23-Feb-21 08:23 33.730476 -118.046774 41 3000ft 159kts
23-Feb-21 08:24 33.764028 -118.012783 41 2999ft 156kts
23-Feb-21 08:25 33.797385 -117.978988 41 3000ft 156kts
23-Feb-21 08:26 33.830548 -117.945371 41 3000ft 156kts
23-Feb-21 08:27 33.863821 -117.911629 41 3000ft 156kts
23-Feb-21 08:28 33.895654 -117.879393 41 2994ft 142kts
23-Feb-21 08:29 33.924871 -117.849909 40 2998ft 134kts
23-Feb-21 08:30 33.953113 -117.821044 52 2995ft 132kts
23-Feb-21 08:31 33.940850 -117.785689 131 3001ft 124kts
23-Feb-21 08:32 33.918519 -117.753783 131 3000ft 124kts
23-Feb-21 08:33 33.886466 -117.748186 181 3000ft 122kts
23-Feb-21 08:34 33.853684 -117.754680 209 3002ft 122kts
23-Feb-21 08:35 33.824011 -117.774477 206 2994ft 115kts
23-Feb-21 08:36 33.799743 -117.789891 207 2723ft 96kts
23-Feb-21 08:37 33.775404 -117.805475 207 2135ft 104kts
23-Feb-21 08:38 33.750395 -117.821333 206 1615ft 99kts
23-Feb-21 08:39 33.725873 -117.836801 207 1091ft 100kts
23-Feb-21 08:40 33.701478 -117.852492 207 583ft 100kts
23-Feb-21 08:41 33.677966 -117.867397 206 60ft 69kts
23-Feb-21 08:42 33.675953 -117.869789 303 59ft 0kts
23-Feb-21 08:43 33.676090 -117.871013 210 59ft 3kts
23-Feb-21 08:44 33.676086 -117.871016 210 59ft 0kts
23-Feb-21 08:45 33.676086 -117.871016 210 59ft 0kts
23-Feb-21 08:46 33.676086 -117.871016 210 59ft 0kts
23-Feb-21 08:47 33.676086 -117.871016 210 59ft 0kts
23-Feb-21 08:48 33.676086 -117.871016 210 59ft 0kts
23-Feb-21 08:50 33.676086 -117.871016 210 59ft 0kts
23-Feb-21 08:51 33.676086 -117.871016 210 59ft 0kts

Navigation Log

Ident Type
Flight plan parsing failed, navigation log unavailable